createdAt,value
2019-02-15T00:02:15.693Z,9.50
2019-02-15T00:04:44.252Z,8.50
2019-02-15T00:07:12.875Z,10.97
2019-02-15T00:09:41.483Z,9.33
2019-02-15T00:12:10.032Z,7.53
2019-02-15T00:14:47.030Z,10.87
2019-02-15T00:17:17.376Z,8.97
2019-02-15T00:19:50.518Z,8.67
2019-02-15T00:22:19.235Z,7.30
2019-02-15T00:24:47.913Z,9.93
2019-02-15T00:27:16.459Z,10.57
2019-02-15T00:29:45.017Z,8.70
2019-02-15T00:32:13.694Z,10.53
2019-02-15T00:34:42.269Z,7.90
2019-02-15T00:37:10.837Z,8.20
2019-02-15T00:39:39.356Z,6.67
2019-02-15T00:42:07.894Z,9.77
2019-02-15T00:44:36.449Z,7.47
2019-02-15T00:47:18.737Z,8.93
2019-02-15T00:49:49.297Z,8.00
2019-02-15T00:52:19.521Z,7.93
2019-02-15T00:54:55.742Z,8.30
2019-02-15T00:57:31.605Z,9.07
2019-02-15T01:00:04.732Z,7.90
2019-02-15T01:02:34.982Z,9.43
2019-02-15T01:05:05.308Z,8.10
2019-02-15T01:07:41.285Z,9.47
2019-02-15T01:10:14.288Z,10.00
2019-02-15T01:12:50.529Z,6.87
2019-02-15T01:15:19.131Z,8.73
2019-02-15T01:17:47.849Z,9.63
2019-02-15T01:20:16.393Z,7.10
2019-02-15T01:22:45.072Z,9.70
2019-02-15T01:25:13.740Z,9.77
2019-02-15T01:27:44.018Z,8.80
2019-02-15T01:30:17.194Z,8.53
2019-02-15T01:32:47.404Z,9.90
2019-02-15T01:35:33.807Z,12.47
2019-02-15T01:38:19.156Z,6.57
2019-02-15T01:40:57.978Z,6.50
2019-02-15T01:43:40.547Z,9.00
2019-02-15T01:46:10.876Z,10.40
2019-02-15T01:48:39.349Z,10.50
2019-02-15T01:51:07.898Z,6.63
2019-02-15T01:53:36.391Z,7.87
2019-02-15T01:56:05.019Z,10.30
2019-02-15T01:58:33.547Z,6.37
2019-02-15T02:01:02.264Z,7.03
2019-02-15T02:03:30.933Z,9.43
2019-02-15T02:05:59.550Z,6.97
2019-02-15T02:08:28.412Z,9.33
2019-02-15T02:10:56.965Z,5.73
2019-02-15T02:13:25.704Z,6.87
2019-02-15T02:15:54.252Z,8.53
2019-02-15T02:18:22.851Z,10.63
2019-02-15T02:20:51.478Z,7.57
2019-02-15T02:23:20.152Z,6.57
2019-02-15T02:25:48.783Z,7.73
2019-02-15T02:28:17.385Z,8.93
2019-02-15T02:30:46.093Z,5.53
2019-02-15T02:33:14.772Z,6.83
2019-02-15T02:35:43.304Z,7.00
2019-02-15T02:38:11.860Z,6.73
2019-02-15T02:40:40.399Z,6.17
2019-02-15T02:43:09.055Z,4.97
2019-02-15T02:45:37.658Z,5.93
2019-02-15T02:48:06.293Z,8.20
2019-02-15T02:50:34.889Z,7.67
2019-02-15T02:53:03.532Z,10.33
2019-02-15T02:55:32.069Z,7.30
2019-02-15T02:58:00.645Z,6.87
2019-02-15T03:00:33.550Z,9.57
2019-02-15T03:02:59.544Z,5.73
2019-02-15T03:05:28.305Z,8.93
2019-02-15T03:07:56.866Z,9.47
2019-02-15T03:10:25.442Z,6.50
2019-02-15T03:12:54.003Z,6.23
2019-02-15T03:15:22.617Z,5.73
2019-02-15T03:17:51.155Z,6.87
2019-02-15T03:20:30.377Z,7.87
2019-02-15T03:22:50.114Z,5.90
2019-02-15T03:25:18.746Z,6.70
2019-02-15T03:27:47.430Z,5.30
2019-02-15T03:30:16.116Z,5.77
2019-02-15T03:32:44.792Z,4.60
2019-02-15T03:35:13.509Z,4.57
2019-02-15T03:37:49.611Z,3.97
2019-02-15T03:40:19.993Z,5.10
2019-02-15T03:42:48.563Z,6.00
2019-02-15T03:45:17.746Z,4.90
2019-02-15T03:47:46.211Z,4.40
2019-02-15T03:50:14.943Z,3.83
2019-02-15T03:52:43.555Z,6.87
2019-02-15T03:55:12.102Z,7.07
2019-02-15T03:57:40.646Z,5.23
2019-02-15T04:00:12.016Z,2.97
2019-02-15T04:02:40.762Z,5.30
2019-02-15T04:05:09.472Z,4.57
2019-02-15T04:07:37.993Z,7.03
2019-02-15T04:10:08.707Z,3.10
2019-02-15T04:12:37.254Z,4.87
2019-02-15T04:15:07.935Z,6.00
2019-02-15T04:17:36.565Z,5.63
2019-02-15T04:20:08.037Z,6.90
2019-02-15T04:22:36.666Z,4.83
2019-02-15T04:25:06.199Z,7.03
2019-02-15T04:27:34.783Z,7.97
2019-02-15T04:30:03.436Z,7.73
2019-02-15T04:32:32.080Z,7.70
2019-02-15T04:35:00.702Z,7.47
2019-02-15T04:37:29.339Z,8.67
2019-02-15T04:39:57.857Z,7.20
2019-02-15T04:42:26.486Z,9.80
2019-02-15T04:44:55.096Z,10.50
2019-02-15T04:47:23.640Z,8.53
2019-02-15T04:49:52.185Z,12.93
2019-02-15T04:52:20.767Z,11.07
2019-02-15T04:54:49.315Z,9.13
2019-02-15T04:57:17.998Z,8.90
2019-02-15T04:59:46.504Z,7.67
2019-02-15T05:02:15.104Z,13.23
2019-02-15T05:04:43.802Z,13.00
2019-02-15T05:07:12.355Z,12.03
2019-02-15T05:09:40.910Z,15.77
2019-02-15T05:12:09.575Z,11.97
2019-02-15T05:14:38.139Z,10.47
2019-02-15T05:17:06.726Z,10.40
2019-02-15T05:19:35.299Z,9.80
2019-02-15T05:22:03.983Z,9.47
2019-02-15T05:24:32.609Z,10.53
2019-02-15T05:27:01.154Z,12.57
2019-02-15T05:29:29.857Z,11.37
2019-02-15T05:31:58.380Z,11.07
2019-02-15T05:34:26.923Z,11.47
2019-02-15T05:36:55.554Z,13.17
2019-02-15T05:39:24.162Z,9.90
2019-02-15T05:41:52.791Z,11.00
2019-02-15T05:44:21.396Z,18.50
2019-02-15T05:46:50.028Z,9.83
2019-02-15T05:49:18.569Z,11.80
2019-02-15T05:51:47.641Z,11.43
2019-02-15T05:54:16.543Z,8.80
2019-02-15T05:56:45.242Z,10.20
2019-02-15T05:59:13.766Z,14.33
2019-02-15T06:01:42.610Z,10.63
2019-02-15T06:04:11.149Z,10.93
2019-02-15T06:06:39.701Z,8.30
2019-02-15T06:09:08.409Z,10.33
2019-02-15T06:11:37.114Z,8.00
2019-02-15T06:14:05.816Z,11.90
2019-02-15T06:16:34.518Z,8.63
2019-02-15T06:19:03.105Z,9.67
2019-02-15T06:21:31.606Z,11.23
2019-02-15T06:24:00.254Z,13.87
2019-02-15T06:26:28.789Z,7.30
2019-02-15T06:28:57.510Z,9.93
2019-02-15T06:31:26.124Z,9.97
2019-02-15T06:33:54.685Z,8.13
2019-02-15T06:36:24.921Z,10.33
2019-02-15T06:38:54.067Z,8.93
2019-02-15T06:41:22.817Z,7.03
2019-02-15T06:43:51.485Z,6.80
2019-02-15T06:46:20.118Z,5.93
2019-02-15T06:48:48.663Z,7.03
2019-02-15T06:51:17.896Z,5.60
2019-02-15T06:53:48.705Z,4.97
2019-02-15T06:56:23.522Z,4.60
2019-02-15T06:58:54.115Z,5.50
2019-02-15T07:01:26.825Z,4.67
2019-02-15T07:04:00.549Z,5.17
2019-02-15T07:06:29.347Z,4.40
2019-02-15T07:08:57.874Z,4.63
2019-02-15T07:11:26.581Z,7.13
2019-02-15T07:13:59.492Z,5.10
2019-02-15T07:16:28.403Z,5.20
2019-02-15T07:18:57.543Z,7.93
2019-02-15T07:21:26.620Z,11.30
2019-02-15T07:23:57.020Z,7.07
2019-02-15T07:26:25.841Z,9.30
2019-02-15T07:28:54.634Z,5.17
2019-02-15T07:31:23.517Z,5.13
2019-02-15T07:33:52.814Z,5.17
2019-02-15T07:36:25.501Z,6.27
2019-02-15T07:38:54.477Z,12.40
2019-02-15T07:41:30.474Z,7.83
2019-02-15T07:43:59.363Z,16.13
2019-02-15T07:46:28.084Z,7.30
2019-02-15T07:48:56.776Z,8.03
2019-02-15T07:51:25.834Z,8.97
2019-02-15T07:53:55.027Z,11.47
2019-02-15T07:56:23.835Z,9.23
2019-02-15T07:58:55.731Z,7.07
2019-02-15T08:01:24.337Z,10.03
2019-02-15T08:03:52.945Z,5.67
2019-02-15T08:06:21.589Z,7.13
2019-02-15T08:08:50.132Z,9.50
2019-02-15T08:11:18.885Z,10.13
2019-02-15T08:13:47.553Z,6.73
2019-02-15T08:16:16.932Z,9.67
2019-02-15T08:18:48.236Z,8.13
2019-02-15T08:21:16.895Z,10.97
2019-02-15T08:23:45.452Z,6.63
2019-02-15T08:26:14.068Z,9.30
2019-02-15T08:28:42.716Z,11.37
2019-02-15T08:31:11.334Z,11.63
2019-02-15T08:33:40.038Z,11.33
2019-02-15T08:36:08.574Z,9.83
2019-02-15T08:38:37.093Z,11.30
2019-02-15T08:41:05.627Z,9.87
2019-02-15T08:43:37.238Z,12.37
2019-02-15T08:46:06.784Z,8.47
2019-02-15T08:48:36.206Z,12.13
2019-02-15T08:51:04.894Z,13.97
2019-02-15T08:53:33.541Z,12.27
2019-02-15T08:56:02.086Z,10.17
2019-02-15T08:58:30.730Z,17.37
2019-02-15T09:01:01.683Z,15.07
2019-02-15T09:03:35.384Z,13.93
2019-02-15T09:06:04.471Z,9.47
2019-02-15T09:08:35.043Z,10.47
2019-02-15T09:11:03.762Z,9.13
2019-02-15T09:13:32.256Z,11.97
2019-02-15T09:16:09.817Z,11.53
2019-02-15T09:18:31.177Z,10.67
2019-02-15T09:20:59.809Z,13.57
2019-02-15T09:23:28.398Z,11.50
2019-02-15T09:25:56.977Z,10.63
2019-02-15T09:28:33.457Z,12.83
2019-02-15T09:31:02.018Z,9.70
2019-02-15T09:33:30.690Z,7.83
2019-02-15T09:35:59.340Z,11.80
2019-02-15T09:38:27.835Z,11.43
2019-02-15T09:40:56.450Z,14.13
2019-02-15T09:43:25.137Z,16.10
2019-02-15T09:45:53.797Z,15.20
2019-02-15T09:48:22.346Z,11.77
2019-02-15T09:50:50.902Z,12.30
2019-02-15T09:53:19.543Z,11.53
2019-02-15T09:55:48.196Z,13.17
2019-02-15T09:58:16.767Z,12.13
2019-02-15T10:00:45.416Z,10.20
2019-02-15T10:03:13.970Z,10.27
2019-02-15T10:05:42.598Z,7.07
2019-02-15T10:08:11.252Z,10.30
2019-02-15T10:10:39.859Z,14.20
2019-02-15T10:13:08.415Z,13.97
2019-02-15T10:15:37.045Z,8.00
2019-02-15T10:18:05.742Z,10.37
2019-02-15T10:20:34.363Z,10.07
2019-02-15T10:23:03.001Z,13.80
2019-02-15T10:25:31.618Z,9.93
2019-02-15T10:28:00.245Z,12.50
2019-02-15T10:30:28.861Z,10.67
2019-02-15T10:32:57.491Z,13.63
2019-02-15T10:35:26.104Z,12.67
2019-02-15T10:37:54.667Z,8.93
2019-02-15T10:40:23.228Z,13.03
2019-02-15T10:42:51.833Z,13.97
2019-02-15T10:45:20.487Z,14.87
2019-02-15T10:47:49.018Z,13.73
2019-02-15T10:50:17.870Z,11.13
2019-02-15T10:52:46.546Z,13.43
2019-02-15T10:55:15.263Z,12.40
2019-02-15T10:57:43.813Z,9.20
2019-02-15T11:00:18.379Z,11.63
2019-02-15T11:02:47.077Z,11.03
2019-02-15T11:05:16.771Z,9.93
2019-02-15T11:07:45.313Z,15.07
2019-02-15T11:10:14.182Z,9.47
2019-02-15T11:12:42.713Z,10.23
2019-02-15T11:15:16.002Z,15.77
2019-02-15T11:17:44.723Z,12.17
2019-02-15T11:20:15.631Z,9.73
2019-02-15T11:22:44.234Z,12.20
2019-02-15T11:25:32.270Z,9.43
2019-02-15T11:28:00.828Z,9.70
2019-02-15T11:30:29.358Z,11.27
2019-02-15T11:32:57.987Z,8.60
2019-02-15T11:35:26.605Z,10.13
2019-02-15T11:37:55.260Z,9.40
2019-02-15T11:40:24.041Z,11.07
2019-02-15T11:42:52.628Z,7.43
2019-02-15T11:45:21.251Z,8.33
2019-02-15T11:47:49.960Z,7.03
2019-02-15T11:50:18.582Z,10.73
2019-02-15T11:52:47.194Z,7.43
2019-02-15T11:55:15.944Z,10.43
2019-02-15T11:57:44.574Z,4.93
2019-02-15T12:00:23.172Z,9.23
2019-02-15T12:02:52.007Z,8.10
2019-02-15T12:05:20.674Z,6.13
2019-02-15T12:07:49.286Z,5.33
2019-02-15T12:10:17.875Z,7.40
2019-02-15T12:12:46.537Z,7.70
2019-02-15T12:15:15.211Z,5.90
2019-02-15T12:17:43.774Z,7.87
2019-02-15T12:20:14.078Z,17.27
2019-02-15T12:22:42.704Z,7.50
2019-02-15T12:25:11.429Z,10.37
2019-02-15T12:27:40.095Z,7.80
2019-02-15T12:30:14.017Z,9.47
2019-02-15T12:32:42.569Z,10.20
2019-02-15T12:35:11.752Z,8.10
2019-02-15T12:37:40.307Z,10.30
2019-02-15T12:40:11.007Z,9.40
2019-02-15T12:42:39.691Z,10.27
2019-02-15T12:45:10.682Z,8.73
2019-02-15T12:47:39.420Z,11.97
2019-02-15T12:50:11.032Z,7.47
2019-02-15T12:52:39.644Z,8.33
2019-02-15T12:55:08.287Z,9.93
2019-02-15T12:57:37.009Z,11.57
2019-02-15T13:00:08.794Z,7.23
2019-02-15T13:02:37.420Z,8.30
2019-02-15T13:05:08.021Z,7.63
2019-02-15T13:07:36.590Z,10.07
2019-02-15T13:10:08.957Z,10.87
2019-02-15T13:12:37.635Z,9.97
2019-02-15T13:15:08.210Z,9.60
2019-02-15T13:17:36.885Z,11.80
2019-02-15T13:20:09.666Z,7.47
2019-02-15T13:22:38.297Z,11.37
2019-02-15T13:25:08.098Z,11.13
2019-02-15T13:27:36.633Z,7.43
2019-02-15T13:30:11.249Z,7.10
2019-02-15T13:32:39.915Z,9.40
2019-02-15T13:35:11.404Z,9.47
2019-02-15T13:37:40.031Z,7.10
2019-02-15T13:40:09.703Z,12.87
2019-02-15T13:42:38.332Z,7.47
2019-02-15T13:45:11.989Z,8.13
2019-02-15T13:47:40.713Z,6.00
2019-02-15T13:50:14.386Z,7.80
2019-02-15T13:52:43.075Z,9.90
2019-02-15T13:55:11.719Z,7.57
2019-02-15T13:57:40.557Z,10.23
2019-02-15T14:00:11.829Z,8.13
2019-02-15T14:02:40.697Z,10.10
2019-02-15T14:05:11.211Z,8.50
2019-02-15T14:07:40.038Z,7.90
2019-02-15T14:10:12.862Z,11.60
2019-02-15T14:12:41.605Z,9.80
2019-02-15T14:15:11.377Z,7.67
2019-02-15T14:17:44.773Z,12.07
2019-02-15T14:20:13.574Z,8.57
2019-02-15T14:22:42.188Z,6.93
2019-02-15T14:25:12.166Z,9.50
2019-02-15T14:27:40.669Z,10.13
2019-02-15T14:30:12.289Z,10.83
2019-02-15T14:32:41.113Z,10.10
2019-02-15T14:35:11.078Z,11.83
2019-02-15T14:37:39.697Z,12.43
2019-02-15T14:40:10.645Z,8.80
2019-02-15T14:42:39.414Z,8.33
2019-02-15T14:45:10.151Z,9.00
2019-02-15T14:47:38.835Z,10.57
2019-02-15T14:50:09.032Z,9.77
2019-02-15T14:52:37.729Z,12.00
2019-02-15T14:55:08.460Z,10.00
2019-02-15T14:57:37.126Z,14.80
2019-02-15T15:00:08.764Z,11.23
2019-02-15T15:02:37.403Z,11.80
2019-02-15T15:05:06.890Z,9.40
2019-02-15T15:07:35.539Z,12.73
2019-02-15T15:10:06.142Z,11.87
2019-02-15T15:12:34.698Z,9.90
2019-02-15T15:15:04.096Z,10.63
2019-02-15T15:17:32.635Z,12.17
2019-02-15T15:20:01.215Z,11.67
2019-02-15T15:22:29.744Z,8.57
2019-02-15T15:24:58.330Z,10.17
2019-02-15T15:27:27.053Z,8.43
2019-02-15T15:29:55.659Z,11.53
2019-02-15T15:32:24.259Z,13.23
2019-02-15T15:34:52.883Z,11.00
2019-02-15T15:37:21.426Z,12.70
2019-02-15T15:39:50.095Z,13.07
2019-02-15T15:42:18.698Z,11.73
2019-02-15T15:44:47.346Z,11.50
2019-02-15T15:47:15.957Z,8.70
2019-02-15T15:49:44.692Z,10.67
2019-02-15T15:52:13.344Z,10.30
2019-02-15T15:54:41.950Z,10.47
2019-02-15T15:57:10.536Z,7.40
2019-02-15T15:59:39.207Z,9.00
2019-02-15T16:02:07.838Z,7.50
2019-02-15T16:04:36.509Z,7.97
2019-02-15T16:07:05.248Z,7.00
2019-02-15T16:09:33.897Z,10.77
2019-02-15T16:12:02.566Z,9.67
2019-02-15T16:14:31.137Z,13.77
2019-02-15T16:16:59.757Z,7.90
2019-02-15T16:19:28.529Z,10.17
2019-02-15T16:21:57.094Z,5.63
2019-02-15T16:24:27.229Z,10.13
2019-02-15T16:26:56.424Z,6.17
2019-02-15T16:29:26.113Z,12.53
2019-02-15T16:31:55.005Z,10.67
2019-02-15T16:34:23.496Z,5.57
2019-02-15T16:36:52.240Z,7.23
2019-02-15T16:39:20.917Z,9.10
2019-02-15T16:41:49.598Z,7.77
2019-02-15T16:44:18.392Z,7.53
2019-02-15T16:46:47.101Z,8.77
2019-02-15T16:49:15.732Z,8.57
2019-02-15T16:51:44.528Z,8.30
2019-02-15T16:54:13.032Z,11.80
2019-02-15T16:56:41.660Z,9.93
2019-02-15T16:59:10.377Z,12.63
2019-02-15T17:01:39.145Z,11.43
2019-02-15T17:04:07.673Z,8.30
2019-02-15T17:06:36.231Z,10.07
2019-02-15T17:09:07.063Z,8.33
2019-02-15T17:11:35.566Z,8.77
2019-02-15T17:14:04.213Z,12.23
2019-02-15T17:16:32.749Z,9.80
2019-02-15T17:19:01.390Z,10.53
2019-02-15T17:21:29.909Z,11.40
2019-02-15T17:23:58.435Z,10.80
2019-02-15T17:26:26.970Z,9.60
2019-02-15T17:28:55.542Z,8.43
2019-02-15T17:31:24.166Z,15.70
2019-02-15T17:33:52.721Z,9.37
2019-02-15T17:36:21.245Z,16.93
2019-02-15T17:38:49.739Z,12.47
2019-02-15T17:41:18.278Z,15.10
2019-02-15T17:43:46.846Z,13.33
2019-02-15T17:46:15.419Z,12.60
2019-02-15T17:48:44.202Z,19.47
2019-02-15T17:51:12.818Z,14.13
2019-02-15T17:53:41.727Z,15.57
2019-02-15T17:56:10.407Z,12.10
2019-02-15T17:58:42.677Z,12.50
2019-02-15T18:01:11.310Z,8.07
2019-02-15T18:03:44.005Z,21.73
2019-02-15T18:06:13.751Z,10.87
2019-02-15T18:09:12.139Z,10.47
2019-02-15T18:11:42.164Z,13.17
2019-02-15T18:14:10.689Z,16.13
2019-02-15T18:16:39.435Z,13.87
2019-02-15T18:19:09.975Z,17.90
2019-02-15T18:21:38.329Z,11.63
2019-02-15T18:24:07.466Z,10.90
2019-02-15T18:26:36.186Z,13.73
2019-02-15T18:29:05.702Z,13.30
2019-02-15T18:31:34.315Z,16.67
2019-02-15T18:34:02.910Z,12.10
2019-02-15T18:36:31.561Z,17.40
2019-02-15T18:39:00.179Z,17.90
2019-02-15T18:41:28.796Z,21.93
2019-02-15T18:43:57.484Z,20.87
2019-02-15T18:46:26.140Z,18.30
2019-02-15T18:48:54.822Z,30.60
2019-02-15T18:51:23.384Z,27.20
2019-02-15T18:53:52.019Z,26.83
2019-02-15T18:56:20.709Z,19.77
2019-02-15T18:58:49.298Z,16.13
2019-02-15T19:01:17.913Z,20.00
2019-02-15T19:03:46.610Z,17.00
2019-02-15T19:06:15.139Z,17.80
2019-02-15T19:08:43.838Z,17.03
2019-02-15T19:11:12.515Z,21.17
2019-02-15T19:13:41.164Z,19.03
2019-02-15T19:16:09.719Z,15.33
2019-02-15T19:18:38.395Z,17.80
2019-02-15T19:21:06.977Z,15.90
2019-02-15T19:23:35.605Z,17.97
2019-02-15T19:26:04.298Z,18.23
2019-02-15T19:28:33.128Z,11.23
2019-02-15T19:31:02.646Z,14.33
2019-02-15T19:33:31.794Z,13.93
2019-02-15T19:36:02.223Z,12.03
2019-02-15T19:38:30.961Z,12.23
2019-02-15T19:40:59.590Z,16.70
2019-02-15T19:43:29.840Z,11.17
2019-02-15T19:45:58.406Z,13.63
2019-02-15T19:48:26.972Z,14.13
2019-02-15T19:50:55.610Z,16.17
2019-02-15T19:53:24.223Z,14.83
2019-02-15T19:55:52.993Z,14.97
2019-02-15T19:58:21.671Z,11.60
2019-02-15T20:00:50.313Z,13.70
2019-02-15T20:03:18.993Z,14.30
2019-02-15T20:05:47.560Z,15.87
2019-02-15T20:08:16.180Z,16.37
2019-02-15T20:10:44.786Z,15.30
2019-02-15T20:13:13.439Z,15.07
2019-02-15T20:15:45.780Z,12.67
2019-02-15T20:18:15.749Z,16.67
2019-02-15T20:20:44.513Z,14.10
2019-02-15T20:23:13.150Z,14.20
2019-02-15T20:25:42.113Z,16.67
2019-02-15T20:28:14.056Z,18.33
2019-02-15T20:30:40.854Z,16.67
2019-02-15T20:33:09.509Z,19.93
2019-02-15T20:35:38.029Z,17.83
2019-02-15T20:38:06.738Z,16.80
2019-02-15T20:40:35.368Z,17.83
2019-02-15T20:43:05.544Z,18.30
2019-02-15T20:45:34.364Z,20.47
2019-02-15T20:48:02.981Z,19.43
2019-02-15T20:50:31.685Z,16.03
2019-02-15T20:53:00.404Z,19.73
2019-02-15T20:55:29.101Z,36.33
2019-02-15T20:57:57.745Z,26.03
2019-02-15T21:00:30.263Z,18.90
2019-02-15T21:02:59.027Z,22.23
2019-02-15T21:05:29.441Z,19.03
2019-02-15T21:07:58.054Z,18.30
2019-02-15T21:10:26.865Z,14.63
2019-02-15T21:12:55.472Z,16.70
2019-02-15T21:15:24.381Z,13.47
2019-02-15T21:17:53.200Z,17.67
2019-02-15T21:20:21.765Z,16.03
2019-02-15T21:22:50.370Z,13.10
2019-02-15T21:25:19.510Z,16.47
2019-02-15T21:27:48.374Z,17.00
2019-02-15T21:30:18.424Z,14.00
2019-02-15T21:32:47.818Z,20.70
2019-02-15T21:35:16.569Z,17.27
2019-02-15T21:37:45.263Z,17.27
2019-02-15T21:40:15.988Z,14.97
2019-02-15T21:42:44.689Z,14.37
2019-02-15T21:45:13.385Z,17.63
2019-02-15T21:47:42.090Z,18.20
2019-02-15T21:50:17.324Z,21.03
2019-02-15T21:52:44.028Z,17.77
2019-02-15T21:55:16.313Z,20.20
2019-02-15T21:57:45.179Z,20.13
2019-02-15T22:00:21.460Z,19.83
2019-02-15T22:02:50.473Z,16.13
2019-02-15T22:05:19.124Z,18.20
2019-02-15T22:07:47.699Z,14.83
2019-02-15T22:10:16.321Z,18.17
2019-02-15T22:12:45.014Z,17.60
2019-02-15T22:15:15.693Z,13.83
2019-02-15T22:17:44.314Z,15.43
2019-02-15T22:20:25.982Z,15.23
2019-02-15T22:22:47.202Z,16.13
2019-02-15T22:25:15.833Z,15.53
2019-02-15T22:27:44.550Z,13.23
2019-02-15T22:30:20.266Z,16.27
2019-02-15T22:32:49.105Z,16.50
2019-02-15T22:35:18.524Z,17.10
2019-02-15T22:37:47.091Z,15.93
2019-02-15T22:40:29.748Z,14.80
2019-02-15T22:43:16.306Z,17.90
2019-02-15T22:45:44.992Z,16.77
2019-02-15T22:48:13.539Z,12.60
2019-02-15T22:50:42.982Z,19.83
2019-02-15T22:53:11.462Z,16.37
2019-02-15T22:55:40.089Z,15.20
2019-02-15T22:58:08.726Z,16.57
2019-02-15T23:00:47.779Z,19.50
2019-02-15T23:03:17.986Z,15.97
2019-02-15T23:05:46.691Z,16.63
2019-02-15T23:08:15.601Z,15.20
2019-02-15T23:10:44.415Z,16.63
2019-02-15T23:13:13.126Z,16.40
2019-02-15T23:15:41.875Z,14.50
2019-02-15T23:18:10.595Z,15.57
2019-02-15T23:20:45.127Z,13.57
2019-02-15T23:23:09.710Z,20.53
2019-02-15T23:25:38.547Z,14.53
2019-02-15T23:28:07.242Z,13.33
2019-02-15T23:30:35.902Z,12.07
2019-02-15T23:33:04.609Z,10.73
2019-02-15T23:35:33.294Z,10.33
2019-02-15T23:38:01.891Z,14.90
2019-02-15T23:40:31.487Z,14.60
2019-02-15T23:43:00.136Z,13.90
2019-02-15T23:45:28.741Z,12.80
2019-02-15T23:47:57.307Z,12.43
2019-02-15T23:50:25.852Z,10.53
2019-02-15T23:52:55.058Z,9.67
2019-02-15T23:55:23.797Z,9.77
2019-02-15T23:57:52.324Z,10.63
